KPSK

New River Valley Airport

Dublin, Virginia, USA
METAR KPSK 211955Z AUTO 25006KT 10SM SCT034 BKN044 OVC070 15/05 A3019 RMK AO2 T01480047
Observed Flight Rules
Jan-21 @ 19:55 UTC (30 minutes ago) Visual Flight Rules
Wind Visibility Clouds
250° at 6 knots 10 miles
  • Scattered at 3,400' AGL
  • Broken at 4,400' AGL
  • Overcast at 7,000' AGL
Temperatures Readings
Current 15°C / 59°F
Dewpoint 5°C / 41°F
Humidity 51%
Altimeter 30.19" Hg
Pressure 1022 hPa
Elevation 642
METAR KPSK 211955Z AUTO 25006KT 10SM SCT034 BKN044 OVC070 15/05 A3019 RMK AO2 T01480047
Observed Flight Rules
Jan-21 @ 19:55 UTC
(30 minutes ago)
VFR
Wind Visibility
250° at 6 knots 10 miles
Clouds
  • Scattered at 3,400' AGL
  • Broken at 4,400' AGL
  • Overcast at 7,000' AGL
Temperature Dewpoint
15°C / 59°F 5°C / 41°F
Humidity Altimeter Pressure
51% 30.19" Hg 1022 hPa